Time;durP1;ratioP1;P1;durP2;ratioP2;P2;SDS_P1;SDS_P2;PMS_P1;PMS_P2;Temp;Humidity;BMP_temperature;BMP_pressure;BME280_temperature;BME280_humidity;BME280_pressure;Samples;Min_cycle;Max_cycle;Signal;HPM_P1;HPM_P2
2023/06/11 00:00:56;;;;;;;12.20;10.20;;;19.60;1.00;;;;;;4994063;28;20634;-78
2023/06/11 00:03:52;;;;;;;15.80;9.37;;;19.60;1.00;;;;;;4993776;28;20424;-79
2023/06/11 00:06:22;;;;;;;13.13;9.20;;;19.50;1.00;;;;;;4986624;28;20420;-79
2023/06/11 00:08:55;;;;;;;12.93;10.30;;;19.50;1.00;;;;;;4993049;28;20484;-79
2023/06/11 00:11:22;;;;;;;13.67;10.00;;;19.50;1.00;;;;;;4983191;28;20937;-79
2023/06/11 00:13:50;;;;;;;10.97;9.53;;;19.50;1.00;;;;;;4991249;28;20396;-80
2023/06/11 00:16:20;;;;;;;14.83;9.83;;;19.50;1.00;;;;;;4993466;28;20418;-75
2023/06/11 00:18:46;;;;;;;11.90;9.60;;;19.50;1.00;;;;;;4993317;28;20788;-75
2023/06/11 00:21:14;;;;;;;11.10;9.03;;;19.50;1.00;;;;;;4995986;28;20421;-74
2023/06/11 00:23:43;;;;;;;11.50;10.30;;;19.60;1.00;;;;;;4996781;28;20432;-75
2023/06/11 00:26:10;;;;;;;14.23;10.60;;;19.60;1.00;;;;;;4996331;28;20733;-75
2023/06/11 00:28:37;;;;;;;14.27;9.90;;;19.60;1.00;;;;;;4999887;28;20934;-74
2023/06/11 00:31:14;;;;;;;14.53;10.50;;;19.60;1.00;;;;;;4986475;28;20540;-74
2023/06/11 00:33:43;;;;;;;13.03;9.10;;;19.60;1.00;;;;;;4995992;28;20534;-75
2023/06/11 00:36:13;;;;;;;15.60;9.80;;;19.60;1.00;;;;;;4995705;28;20792;-75
2023/06/11 00:38:41;;;;;;;23.67;10.30;;;19.60;1.00;;;;;;4997276;28;20549;-75
2023/06/11 00:41:06;;;;;;;16.23;9.80;;;19.50;1.00;;;;;;4996778;28;20437;-75
2023/06/11 00:43:32;;;;;;;10.80;8.87;;;19.50;1.00;;;;;;4986499;28;20409;-74
2023/06/11 00:46:11;;;;;;;12.20;10.23;;;19.50;1.00;;;;;;4996729;28;20178;-74
2023/06/11 00:48:40;;;;;;;12.10;9.90;;;19.40;1.00;;;;;;4994194;28;20190;-75
2023/06/11 00:51:10;;;;;;;18.13;9.80;;;19.40;1.00;;;;;;4997146;28;20410;-75
2023/06/11 00:53:37;;;;;;;14.20;10.07;;;19.40;1.00;;;;;;4992072;28;20441;-75
2023/06/11 00:56:03;;;;;;;12.03;10.27;;;19.30;1.00;;;;;;4990295;28;20435;-75
2023/06/11 00:58:38;;;;;;;14.30;9.83;;;19.20;1.00;;;;;;4996537;28;20448;-74
2023/06/11 01:01:05;;;;;;;14.17;10.43;;;19.20;1.00;;;;;;4991035;28;20169;-74
2023/06/11 01:03:44;;;;;;;15.63;10.43;;;19.10;1.00;;;;;;4995709;28;20432;-74
2023/06/11 01:06:17;;;;;;;13.63;9.40;;;19.10;1.00;;;;;;4990696;28;20444;-75
2023/06/11 01:08:44;;;;;;;12.43;10.40;;;19.00;1.00;;;;;;4995736;28;20437;-74
2023/06/11 01:11:23;;;;;;;17.23;10.17;;;19.00;1.00;;;;;;4996027;28;20498;-74
2023/06/11 01:13:49;;;;;;;15.40;10.47;;;18.90;1.00;;;;;;4993810;28;20445;-74
2023/06/11 01:16:38;;;;;;;12.63;9.80;;;18.90;1.00;;;;;;4978345;28;20840;-75
2023/06/11 01:19:37;;;;;;;10.97;9.87;;;18.70;1.00;;;;;;4992153;28;20535;-79
2023/06/11 01:22:13;;;;;;;14.37;10.13;;;18.70;1.00;;;;;;4917082;29;20466;-79
2023/06/11 01:25:10;;;;;;;14.37;11.37;;;18.70;1.00;;;;;;4899202;29;20912;-79
2023/06/11 01:28:31;;;;;;;11.80;10.10;;;18.60;1.00;;;;;;4833600;29;20593;-79
2023/06/11 01:31:14;;;;;;;12.20;10.13;;;18.50;1.00;;;;;;4824213;29;21010;-79
2023/06/11 01:33:44;;;;;;;12.67;10.40;;;18.50;1.00;;;;;;4829651;29;21031;-79
2023/06/11 01:36:29;;;;;;;12.83;10.57;;;18.40;1.00;;;;;;4842451;29;20447;-79
2023/06/11 01:38:58;;;;;;;11.67;10.20;;;18.40;1.00;;;;;;4843788;29;20506;-79
2023/06/11 01:41:49;;;;;;;12.73;9.50;;;18.30;1.00;;;;;;4842527;29;20484;-79
2023/06/11 01:44:20;;;;;;;14.40;10.57;;;18.30;1.00;;;;;;4822662;29;21942;-79
2023/06/11 01:46:48;;;;;;;12.57;10.43;;;18.30;1.00;;;;;;4834085;29;20440;-76
2023/06/11 01:49:37;;;;;;;12.90;10.20;;;19.30;1.00;;;;;;4842307;29;20823;-79
2023/06/11 01:52:07;;;;;;;17.10;10.10;;;18.20;1.00;;;;;;4842214;29;20472;-79
2023/06/11 01:54:38;;;;;;;14.90;11.37;;;18.10;1.00;;;;;;4838591;29;20959;-80
2023/06/11 01:57:14;;;;;;;15.80;11.00;;;18.10;1.00;;;;;;4841870;29;20778;-79
2023/06/11 01:59:49;;;;;;;12.00;9.97;;;18.00;1.00;;;;;;4889877;29;20467;-79
2023/06/11 02:02:20;;;;;;;11.93;10.50;;;18.00;1.00;;;;;;4898361;29;20443;-76
2023/06/11 02:04:49;;;;;;;16.90;10.90;;;17.90;1.00;;;;;;4976607;28;20437;-75
2023/06/11 02:07:27;;;;;;;13.53;10.37;;;17.90;1.00;;;;;;4977624;28;20804;-75
2023/06/11 02:09:52;;;;;;;20.93;10.30;;;17.90;1.00;;;;;;4995310;28;20460;-75
2023/06/11 02:12:18;;;;;;;12.30;10.20;;;17.80;1.00;;;;;;4989578;28;20439;-75
2023/06/11 02:14:50;;;;;;;13.57;10.57;;;17.80;1.00;;;;;;4990420;28;20676;-75
2023/06/11 02:17:16;;;;;;;15.80;10.70;;;17.80;1.00;;;;;;4978347;28;20217;-74
2023/06/11 02:19:41;;;;;;;11.50;9.60;;;17.70;1.00;;;;;;4995370;28;20425;-74
2023/06/11 02:22:07;;;;;;;17.17;11.20;;;17.70;1.00;;;;;;4995562;28;20639;-74
2023/06/11 02:24:33;;;;;;;15.13;11.00;;;17.70;1.00;;;;;;4992565;28;20184;-74
2023/06/11 02:26:59;;;;;;;16.70;12.00;;;17.70;1.00;;;;;;4994453;28;20224;-75
2023/06/11 02:29:24;;;;;;;13.40;10.67;;;17.70;1.00;;;;;;4982517;28;20200;-75
2023/06/11 02:31:56;;;;;;;13.90;11.40;;;17.60;1.00;;;;;;4993961;28;20191;-75
2023/06/11 02:34:21;;;;;;;11.73;10.47;;;17.60;1.00;;;;;;4995134;28;20653;-74
2023/06/11 02:36:48;;;;;;;14.47;11.20;;;17.60;1.00;;;;;;4993168;28;20445;-75
2023/06/11 02:43:01;;;;;;;14.10;10.80;;;17.50;1.00;;;;;;4995078;28;20407;-86
2023/06/11 02:45:49;;;;;;;16.83;10.93;;;17.40;1.00;;;;;;4986548;28;20430;-87
2023/06/11 02:48:19;;;;;;;14.23;10.57;;;17.40;1.00;;;;;;4995722;28;20404;-87
2023/06/11 02:50:45;;;;;;;18.20;11.60;;;17.40;1.00;;;;;;4978114;28;20934;-86
2023/06/11 02:53:20;;;;;;;18.53;12.00;;;17.30;1.00;;;;;;4975745;28;20452;-86
2023/06/11 02:55:56;;;;;;;13.80;10.87;;;17.20;1.00;;;;;;4973771;28;20184;-86
2023/06/11 02:59:01;;;;;;;18.70;11.70;;;17.20;1.00;;;;;;4963825;28;20872;-86
2023/06/11 03:01:40;;;;;;;14.13;11.63;;;17.20;1.00;;;;;;4977468;28;20448;-86
2023/06/11 03:04:20;;;;;;;15.27;11.33;;;17.20;1.00;;;;;;4970487;28;20430;-91
2023/06/11 03:06:50;;;;;;;16.37;12.00;;;17.20;1.00;;;;;;4983073;28;20516;-92
2023/06/11 03:09:21;;;;;;;14.23;11.00;;;17.10;1.00;;;;;;4977179;28;21050;-92
2023/06/11 03:15:20;;;;;;;13.23;11.63;;;17.10;1.00;;;;;;4986469;28;20942;-92
2023/06/11 03:18:19;;;;;;;13.40;11.77;;;17.10;1.00;;;;;;4958912;28;20459;-91
2023/06/11 03:20:50;;;;;;;16.37;11.30;;;17.00;1.00;;;;;;4960426;28;20470;-92
2023/06/11 03:26:37;;;;;;;13.80;11.70;;;17.00;1.00;;;;;;4993907;28;20417;-91
2023/06/11 03:29:20;;;;;;;15.50;11.03;;;16.90;1.00;;;;;;4994584;28;20442;-92
2023/06/11 03:31:49;;;;;;;16.10;11.30;;;16.90;1.00;;;;;;4974064;28;20747;-92
2023/06/11 03:34:20;;;;;;;12.73;10.10;;;16.90;1.00;;;;;;4965152;28;20415;-92
2023/06/11 03:36:50;;;;;;;14.40;11.13;;;16.90;1.00;;;;;;4977745;28;20484;-92
2023/06/11 03:39:19;;;;;;;13.90;10.50;;;16.90;1.00;;;;;;4977367;28;20428;-92
2023/06/11 03:41:50;;;;;;;13.17;10.63;;;17.00;1.00;;;;;;4977112;28;20417;-92
2023/06/11 03:44:20;;;;;;;13.50;10.83;;;16.90;1.00;;;;;;4969750;28;20507;-92
2023/06/11 03:46:49;;;;;;;15.33;10.57;;;16.90;1.00;;;;;;4974081;28;20952;-92
2023/06/11 03:49:19;;;;;;;14.73;11.57;;;17.00;1.00;;;;;;4976973;28;20417;-92
2023/06/11 03:51:50;;;;;;;13.77;11.73;;;17.00;1.00;;;;;;4976550;28;20953;-92
2023/06/11 03:54:20;;;;;;;13.40;11.20;;;17.00;1.00;;;;;;4977582;28;20901;-92
2023/06/11 03:57:37;;;;;;;12.90;10.80;;;17.00;1.00;;;;;;4976863;28;20418;-92
2023/06/11 04:00:03;;;;;;;14.30;9.73;;;17.10;1.00;;;;;;4990315;28;20439;-92
2023/06/11 04:02:29;;;;;;;14.90;10.50;;;17.10;1.00;;;;;;4980299;28;20439;-92
2023/06/11 04:05:35;;;;;;;13.70;10.20;;;17.20;1.00;;;;;;4999860;28;20435;-91
2023/06/11 04:08:19;;;;;;;14.73;10.50;;;17.20;1.00;;;;;;4978925;28;20239;-92
2023/06/11 04:11:03;;;;;;;18.30;10.37;;;17.20;1.00;;;;;;4980982;28;20419;-92
2023/06/11 04:16:51;;;;;;;13.50;10.47;;;17.30;1.00;;;;;;4997046;28;20424;-92
2023/06/11 04:19:20;;;;;;;15.60;11.10;;;;;;;;;;4980909;28;20794;-86
2023/06/11 04:22:37;;;;;;;13.77;10.20;;;17.40;1.00;;;;;;4974577;28;20180;-86
2023/06/11 04:28:26;;;;;;;13.43;9.93;;;17.60;1.00;;;;;;4985365;28;20451;-86
2023/06/11 04:34:29;;;;;;;20.83;9.80;;;17.70;1.00;;;;;;4997960;28;20410;-92
2023/06/11 04:47:37;;;;;;;12.57;10.03;;;18.10;1.00;;;;;;4995715;28;20430;-92
2023/06/11 04:50:08;;;;;;;11.27;8.80;;;18.20;1.00;;;;;;4980759;28;20423;-87
2023/06/11 05:06:02;;;;;;;11.43;8.80;;;18.70;1.00;;;;;;4987244;28;20455;-91
2023/06/11 05:12:19;;;;;;;15.00;8.60;;;18.90;1.00;;;;;;4996855;28;20496;-91
2023/06/11 05:14:45;;;;;;;10.67;8.77;;;19.10;1.00;;;;;;4974122;28;20411;-90
2023/06/11 05:17:20;;;;;;;9.80;8.63;;;19.20;1.00;;;;;;4970477;28;20565;-90
2023/06/11 05:23:28;;;;;;;13.53;9.40;;;19.40;1.00;;;;;;4995318;28;20416;-86
2023/06/11 05:26:37;;;;;;;9.33;8.43;;;19.50;1.00;;;;;;4979254;28;20792;-86
2023/06/11 05:29:06;;;;;;;15.13;8.57;;;19.60;1.00;;;;;;4972509;28;20441;-86
2023/06/11 05:32:19;;;;;;;15.40;8.53;;;19.70;1.00;;;;;;4975535;28;20442;-86
2023/06/11 05:38:21;;;;;;;11.73;7.70;;;19.90;1.00;;;;;;4995344;28;20526;-86
2023/06/11 05:40:50;;;;;;;11.50;8.20;;;20.10;1.00;;;;;;4985281;28;20426;-86
2023/06/11 05:43:49;;;;;;;8.97;8.03;;;20.20;1.00;;;;;;4986184;28;20431;-85
2023/06/11 05:46:43;;;;;;;9.23;8.33;;;20.30;1.00;;;;;;4975639;28;20415;-85
2023/06/11 05:49:31;;;;;;;8.43;7.63;;;20.50;1.00;;;;;;4977046;28;20519;-86
2023/06/11 05:59:01;;;;;;;8.63;7.73;;;20.80;1.00;;;;;;4990047;28;20513;-86
2023/06/11 06:02:19;;;;;;;8.37;7.43;;;21.00;1.00;;;;;;4978672;28;20437;-86
2023/06/11 06:04:55;;;;;;;13.90;8.33;;;21.10;1.00;;;;;;4978418;28;20432;-88
2023/06/11 06:07:26;;;;;;;8.87;7.97;;;21.20;1.00;;;;;;4978055;28;20485;-89
2023/06/11 06:10:19;;;;;;;8.10;7.23;;;21.30;1.00;;;;;;4977044;28;20438;-89
2023/06/11 06:12:50;;;;;;;9.90;7.60;;;21.40;1.00;;;;;;4975802;28;20436;-89
2023/06/11 06:15:49;;;;;;;11.30;8.40;;;21.50;1.00;;;;;;4975495;28;20475;-89
2023/06/11 06:18:49;;;;;;;10.17;8.00;;;21.60;1.00;;;;;;4985755;28;20503;-88
2023/06/11 06:28:17;;;;;;;9.83;7.67;;;22.00;1.00;;;;;;4984365;28;20428;-90
2023/06/11 06:30:50;;;;;;;10.80;7.33;;;22.10;1.00;;;;;;4978378;28;20496;-90
2023/06/11 06:33:20;;;;;;;12.07;7.63;;;22.20;1.00;;;;;;4975855;28;20513;-90
2023/06/11 06:35:50;;;;;;;8.97;7.97;;;22.30;1.00;;;;;;4978692;28;20780;-87
2023/06/11 06:41:38;;;;;;;10.43;8.20;;;22.60;1.00;;;;;;4989635;28;20449;-87
2023/06/11 06:44:20;;;;;;;9.00;7.93;;;22.80;1.00;;;;;;4995146;28;20434;-87
2023/06/11 06:46:50;;;;;;;10.57;8.00;;;22.90;1.00;;;;;;4977306;28;20176;-87
2023/06/11 06:49:20;;;;;;;12.10;7.20;;;22.90;1.00;;;;;;4978179;28;20427;-87
2023/06/11 06:55:20;;;;;;;8.20;6.90;;;23.20;1.00;;;;;;4995121;28;20439;-87
2023/06/11 06:57:50;;;;;;;8.30;7.43;;;23.30;1.00;;;;;;4977835;28;20457;-87
2023/06/11 07:00:20;;;;;;;10.27;7.53;;;23.50;1.00;;;;;;4975946;28;20416;-88
2023/06/11 07:02:50;;;;;;;8.87;7.53;;;23.60;1.00;;;;;;4968294;28;20447;-88
2023/06/11 07:05:23;;;;;;;9.00;7.73;;;23.70;1.00;;;;;;4971634;28;20437;-88
2023/06/11 07:11:21;;;;;;;8.30;7.50;;;23.80;1.00;;;;;;4993522;28;20908;-88
2023/06/11 07:13:50;;;;;;;11.20;7.60;;;24.00;1.00;;;;;;4992858;28;20526;-88
2023/06/11 07:16:49;;;;;;;13.30;6.83;;;24.00;1.00;;;;;;4977132;28;20444;-87
2023/06/11 07:19:20;;;;;;;12.33;7.30;;;24.10;1.00;;;;;;4975303;28;20491;-88
2023/06/11 07:21:50;;;;;;;10.17;8.30;;;24.30;1.00;;;;;;4977509;28;20440;-89
2023/06/11 07:24:50;;;;;;;9.47;7.20;;;24.40;1.00;;;;;;4972809;28;20528;-89
2023/06/11 07:27:15;;;;;;;8.27;7.50;;;24.60;1.00;;;;;;4976279;28;20459;-89
2023/06/11 07:29:41;;;;;;;8.13;7.33;;;24.70;1.00;;;;;;4977748;28;20775;-89
2023/06/11 07:32:50;;;;;;;9.83;7.40;;;24.80;1.00;;;;;;4974664;28;20191;-89
2023/06/11 07:35:50;;;;;;;12.90;7.30;;;25.00;1.00;;;;;;4976178;28;20222;-89
2023/06/11 07:38:21;;;;;;;12.57;7.43;;;25.10;1.00;;;;;;4994343;28;20553;-89
2023/06/11 07:40:50;;;;;;;8.57;7.50;;;25.20;1.00;;;;;;4977613;28;20411;-89
2023/06/11 07:43:15;;;;;;;11.13;7.00;;;25.30;1.00;;;;;;4977090;28;20420;-89
2023/06/11 07:45:50;;;;;;;9.97;7.93;;;25.40;1.00;;;;;;4974224;28;20461;-89
2023/06/11 07:48:55;;;;;;;9.60;6.70;;;25.50;1.00;;;;;;4984613;28;20248;-89
2023/06/11 07:51:50;;;;;;;8.00;7.20;;;25.50;1.00;;;;;;4976679;28;20440;-89
2023/06/11 07:58:25;;;;;;;10.50;7.07;;;25.70;1.00;;;;;;4992074;28;20875;-90
2023/06/11 08:00:52;;;;;;;6.87;6.17;;;25.90;1.00;;;;;;4978028;28;20427;-90
2023/06/11 08:06:40;;;;;;;7.60;6.80;;;26.10;1.00;;;;;;4985725;28;20432;-86
2023/06/11 08:19:11;;;;;;;7.47;6.60;;;26.50;1.00;;;;;;4993807;28;20552;-89
2023/06/11 08:22:07;;;;;;;6.87;6.27;;;26.50;1.00;;;;;;4976736;28;20437;-89
2023/06/11 08:31:18;;;;;;;7.50;6.33;;;26.70;1.00;;;;;;4984254;28;20453;-89
2023/06/11 08:33:44;;;;;;;8.00;6.30;;;26.80;1.00;;;;;;4993178;28;20987;-89
2023/06/11 08:36:31;;;;;;;8.93;6.70;;;26.90;1.00;;;;;;4973104;28;20530;-90
2023/06/11 08:39:49;;;;;;;7.70;6.13;;;27.00;1.00;;;;;;4964863;28;20208;-90
2023/06/11 08:42:32;;;;;;;8.47;6.23;;;27.20;1.00;;;;;;4968814;28;20492;-89
2023/06/11 08:51:41;;;;;;;8.50;6.47;;;27.40;1.00;;;;;;4996451;28;20423;-88
2023/06/11 08:54:43;;;;;;;8.20;6.30;;;27.40;1.00;;;;;;4982287;28;20447;-87
2023/06/11 08:57:20;;;;;;;7.47;6.07;;;27.30;1.00;;;;;;4985620;28;20404;-87
2023/06/11 09:03:08;;;;;;;16.10;6.67;;;27.60;1.00;;;;;;4996287;28;21037;-87
2023/06/11 09:13:01;;;;;;;9.27;6.90;;;27.80;1.00;;;;;;4993041;28;20451;-87
2023/06/11 09:15:32;;;;;;;7.67;6.60;;;27.90;1.00;;;;;;4973211;28;20450;-87
2023/06/11 09:18:34;;;;;;;7.10;5.90;;;28.10;1.00;;;;;;4969964;28;20963;-88
2023/06/11 09:21:11;;;;;;;6.93;6.10;;;28.10;1.00;;;;;;4929652;29;20534;-86
2023/06/11 09:24:08;;;;;;;17.53;5.67;;;28.00;1.00;;;;;;4918592;29;20929;-94
2023/06/11 09:26:37;;;;;;;7.60;5.20;;;28.00;1.00;;;;;;4921630;29;20431;-93
2023/06/11 09:32:25;;;;;;;8.87;5.10;;;28.10;1.00;;;;;;4932039;29;20427;-94
2023/06/11 09:38:50;;;;;;;11.70;5.70;;;28.40;1.00;;;;;;4943359;29;20545;-86
2023/06/11 09:42:05;;;;;;;5.63;4.87;;;28.50;1.00;;;;;;4932379;29;20499;-87
2023/06/11 09:45:02;;;;;;;7.20;5.00;;;28.60;1.00;;;;;;4928727;29;20515;-87
2023/06/11 09:48:19;;;;;;;5.30;4.70;;;28.80;1.00;;;;;;4930844;29;20441;-86
2023/06/11 09:58:44;;;;;;;6.93;4.80;;;29.00;1.00;;;;;;4985080;28;20539;-93
2023/06/11 10:01:11;;;;;;;11.77;5.80;;;29.30;1.00;;;;;;4994634;28;20660;-93
2023/06/11 10:04:31;;;;;;;5.77;4.93;;;29.30;1.00;;;;;;4976020;28;20452;-95
2023/06/11 10:13:41;;;;;;;8.70;4.97;;;29.50;1.00;;;;;;4996175;28;20412;-94
2023/06/11 10:16:10;;;;;;;8.83;4.83;;;29.60;1.00;;;;;;4977918;28;20428;-92
2023/06/11 10:28:51;;;;;;;7.37;5.03;;;29.70;1.00;;;;;;4994964;28;20435;-93
2023/06/11 10:35:12;;;;;;;6.50;4.60;;;29.70;1.00;;;;;;4995651;28;20399;-94
2023/06/11 10:47:45;;;;;;;8.20;4.83;;;29.90;1.00;;;;;;4922777;29;20446;-89
2023/06/11 10:50:31;;;;;;;4.50;4.10;;;29.90;1.00;;;;;;4935198;29;20860;-86
2023/06/11 10:53:43;;;;;;;9.40;5.40;;;30.00;1.00;;;;;;4919955;29;20432;-94
2023/06/11 10:56:14;;;;;;;10.80;4.90;;;30.10;1.00;;;;;;4936298;29;20447;-93
2023/06/11 10:58:56;;;;;;;9.70;4.87;;;30.30;1.00;;;;;;4920473;29;20459;-94
2023/06/11 11:04:51;;;;;;;12.13;5.33;;;30.40;1.00;;;;;;4923048;29;20950;-93
2023/06/11 11:07:33;;;;;;;5.00;4.23;;;30.40;1.00;;;;;;4927453;29;20511;-93
2023/06/11 11:10:08;;;;;;;6.13;4.27;;;30.50;1.00;;;;;;4939869;29;20457;-86
2023/06/11 11:13:08;;;;;;;5.40;4.40;;;30.60;1.00;;;;;;4949019;29;20427;-87
2023/06/11 11:16:03;;;;;;;5.23;4.73;;;30.60;1.00;;;;;;4994694;28;20489;-87
2023/06/11 11:18:50;;;;;;;6.93;4.83;;;30.70;1.00;;;;;;4993641;28;21043;-86
2023/06/11 11:21:37;;;;;;;6.00;4.87;;;30.70;1.00;;;;;;4976146;28;20438;-86
2023/06/11 11:24:08;;;;;;;4.83;4.43;;;30.70;1.00;;;;;;4976131;28;20433;-93
2023/06/11 11:26:46;;;;;;;5.23;4.33;;;30.90;1.00;;;;;;4994803;28;20424;-94
2023/06/11 11:29:32;;;;;;;10.73;4.50;;;31.10;1.00;;;;;;4977015;28;20437;-93
2023/06/11 11:32:14;;;;;;;5.10;4.07;;;31.20;1.00;;;;;;4977614;28;20424;-94
2023/06/11 11:34:51;;;;;;;5.87;4.30;;;31.20;1.00;;;;;;4976340;28;20436;-94
2023/06/11 11:37:51;;;;;;;5.17;4.67;;;31.20;1.00;;;;;;4976952;28;20498;-93
2023/06/11 11:40:21;;;;;;;5.37;4.87;;;31.00;1.00;;;;;;4960946;28;20440;-87
2023/06/11 11:43:31;;;;;;;5.07;4.60;;;31.00;1.00;;;;;;4964086;28;20425;-86
2023/06/11 11:53:18;;;;;;;6.13;4.03;;;31.40;1.00;;;;;;4991986;28;20487;-87
2023/06/11 11:55:46;;;;;;;5.03;4.50;;;31.60;1.00;;;;;;4918908;29;21099;-88
2023/06/11 11:58:15;;;;;;;6.70;4.53;;;31.70;1.00;;;;;;4934458;29;20524;-87
2023/06/11 12:00:56;;;;;;;8.73;4.20;;;31.70;1.00;;;;;;4934271;29;20419;-87
2023/06/11 12:10:26;;;;;;;7.13;5.07;;;32.10;1.00;;;;;;4935304;29;20399;-88
2023/06/11 12:13:19;;;;;;;4.93;4.47;;;32.20;1.00;;;;;;4917308;29;20447;-89
2023/06/11 12:19:20;;;;;;;5.70;5.10;;;32.60;1.00;;;;;;4930533;29;20524;-86
2023/06/11 12:25:07;;;;;;;9.43;4.80;;;33.20;1.00;;;;;;4931429;29;20974;-87
2023/06/11 12:27:33;;;;;;;6.83;4.70;;;33.50;1.00;;;;;;4922153;29;20450;-87
2023/06/11 12:30:37;;;;;;;4.90;4.50;;;33.70;1.00;;;;;;4938265;29;20432;-88
2023/06/11 12:33:31;;;;;;;6.40;4.80;;;33.80;1.00;;;;;;4968086;28;20196;-87
2023/06/11 12:36:02;;;;;;;4.87;4.43;;;33.90;1.00;;;;;;4980284;28;20448;-88
2023/06/11 12:41:50;;;;;;;5.30;4.83;;;33.70;1.00;;;;;;4997844;28;20416;-93
2023/06/11 12:44:32;;;;;;;5.77;4.40;;;33.30;1.00;;;;;;4997957;28;20401;-94
2023/06/11 12:53:56;;;;;;;7.70;4.63;;;32.30;1.00;;;;;;4987319;28;20417;-94
2023/06/11 13:06:27;;;;;;;7.87;4.90;;;32.50;1.00;;;;;;4991434;28;20411;-87
2023/06/11 13:22:21;;;;;;;4.53;4.07;;;32.40;1.00;;;;;;4993304;28;20815;-93
2023/06/11 13:24:56;;;;;;;8.13;4.20;;;32.10;1.00;;;;;;4977876;28;20429;-92
2023/06/11 13:27:22;;;;;;;6.00;4.00;;;31.90;1.00;;;;;;4974179;28;20197;-93
2023/06/11 13:29:56;;;;;;;6.40;4.20;;;32.00;1.00;;;;;;4975396;28;20794;-94
2023/06/11 13:35:43;;;;;;;5.90;4.30;;;32.30;1.00;;;;;;4982968;28;20776;-89
2023/06/11 13:38:14;;;;;;;4.33;3.87;;;32.60;1.00;;;;;;4996112;28;20465;-88
2023/06/11 13:40:52;;;;;;;4.87;4.40;;;32.80;1.00;;;;;;4985664;28;20234;-88
2023/06/11 13:43:44;;;;;;;6.67;3.97;;;32.80;1.00;;;;;;4977695;28;20948;-87
2023/06/11 13:46:20;;;;;;;8.03;3.93;;;32.90;1.00;;;;;;4995638;28;20432;-88
2023/06/11 13:48:58;;;;;;;4.73;4.33;;;33.10;1.00;;;;;;4971725;28;20512;-89
2023/06/11 13:51:33;;;;;;;7.00;4.10;;;33.10;1.00;;;;;;4988428;28;20461;-88
2023/06/11 13:54:39;;;;;;;4.93;4.27;;;33.20;1.00;;;;;;4985004;28;20558;-87
2023/06/11 13:57:08;;;;;;;5.10;3.93;;;33.20;1.00;;;;;;4979337;28;20514;-84
2023/06/11 13:59:38;;;;;;;4.37;3.63;;;33.10;1.00;;;;;;4967971;28;20484;-87
2023/06/11 14:05:26;;;;;;;7.67;4.07;;;33.30;1.00;;;;;;4990934;28;20469;-86
2023/06/11 14:08:26;;;;;;;5.40;3.80;;;33.40;1.00;;;;;;4995501;28;20448;-86
2023/06/11 14:11:32;;;;;;;4.90;4.40;;;33.40;1.00;;;;;;4978990;28;20429;-88
2023/06/11 14:14:37;;;;;;;7.10;3.90;;;33.50;1.00;;;;;;4978391;28;21020;-85
2023/06/11 14:17:20;;;;;;;7.43;3.80;;;33.30;1.00;;;;;;4976658;28;20417;-85
2023/06/11 14:20:25;;;;;;;5.57;4.00;;;33.30;1.00;;;;;;4983904;28;20854;-85
2023/06/11 14:22:56;;;;;;;8.03;4.40;;;33.30;1.00;;;;;;4992630;28;20425;-86
2023/06/11 14:25:22;;;;;;;9.93;4.20;;;33.40;1.00;;;;;;4973848;28;20484;-78
2023/06/11 14:27:50;;;;;;;4.30;3.97;;;33.50;1.00;;;;;;4989870;28;20456;-79
2023/06/11 14:30:38;;;;;;;4.00;3.70;;;33.50;1.00;;;;;;4987581;28;20185;-79
2023/06/11 14:33:08;;;;;;;4.47;4.07;;;33.60;1.00;;;;;;4986630;28;20456;-79
2023/06/11 14:35:50;;;;;;;4.77;4.33;;;33.60;1.00;;;;;;4992393;28;21014;-79
2023/06/11 14:38:17;;;;;;;6.87;3.73;;;33.80;1.00;;;;;;4994336;28;20948;-78
2023/06/11 14:40:56;;;;;;;4.87;4.47;;;33.80;1.00;;;;;;4995031;28;20927;-78
2023/06/11 14:43:32;;;;;;;4.00;3.70;;;33.90;1.00;;;;;;4994418;28;20955;-78
2023/06/11 14:46:02;;;;;;;3.90;3.63;;;33.80;1.00;;;;;;4975308;28;21036;-78
2023/06/11 14:48:38;;;;;;;6.57;3.97;;;33.80;1.00;;;;;;4994104;28;20527;-78
2023/06/11 14:51:22;;;;;;;4.07;3.67;;;33.80;1.00;;;;;;4994312;28;20527;-78
2023/06/11 14:53:50;;;;;;;10.90;4.10;;;33.60;1.00;;;;;;4989029;28;20857;-78
2023/06/11 14:56:16;;;;;;;4.47;4.07;;;33.40;1.00;;;;;;4992004;28;20440;-75
2023/06/11 14:58:41;;;;;;;5.97;4.00;;;33.50;1.00;;;;;;4991863;28;20551;-75
2023/06/11 15:01:07;;;;;;;5.40;4.40;;;33.40;1.00;;;;;;4993764;28;20184;-74
2023/06/11 15:03:38;;;;;;;5.27;3.70;;;33.50;1.00;;;;;;4992222;28;20173;-75
2023/06/11 15:06:10;;;;;;;4.67;3.90;;;33.70;1.00;;;;;;4989218;28;20457;-75
2023/06/11 15:08:36;;;;;;;5.87;4.00;;;34.50;1.00;;;;;;4988060;28;20438;-74
2023/06/11 15:11:01;;;;;;;4.10;3.80;;;35.70;1.00;;;;;;4993541;28;20441;-75
2023/06/11 15:13:27;;;;;;;7.70;4.13;;;37.50;1.00;;;;;;4993985;28;20433;-75
2023/06/11 15:15:53;;;;;;;4.00;3.60;;;39.00;1.00;;;;;;4991368;28;20193;-76
2023/06/11 15:18:19;;;;;;;7.87;3.00;;;40.80;1.00;;;;;;4990288;28;20237;-75
2023/06/11 15:20:45;;;;;;;6.80;3.30;;;41.50;1.00;;;;;;4990481;28;20236;-76
2023/06/11 15:23:11;;;;;;;2.70;2.60;;;43.30;1.00;;;;;;4991307;28;20436;-76
2023/06/11 15:25:36;;;;;;;3.70;2.80;;;44.40;1.00;;;;;;4988461;28;20609;-76
2023/06/11 15:28:02;;;;;;;2.83;2.73;;;45.50;1.00;;;;;;4992861;28;20205;-75
2023/06/11 15:30:28;;;;;;;5.00;2.67;;;45.30;1.00;;;;;;4994038;28;20236;-75
2023/06/11 15:32:54;;;;;;;2.53;2.43;;;45.70;1.00;;;;;;4991366;28;20483;-76
2023/06/11 15:35:20;;;;;;;3.50;2.37;;;46.30;1.00;;;;;;4973124;28;20430;-76
2023/06/11 15:37:46;;;;;;;2.33;2.23;;;46.60;1.00;;;;;;4987960;28;20174;-76
2023/06/11 15:40:12;;;;;;;3.93;2.00;;;46.90;1.00;;;;;;4992557;28;20192;-76
2023/06/11 15:42:38;;;;;;;2.40;2.30;;;47.60;1.00;;;;;;4991641;28;20235;-79
2023/06/11 15:45:08;;;;;;;2.10;2.00;;;48.00;1.00;;;;;;4990805;28;20177;-80
2023/06/11 15:47:51;;;;;;;2.33;2.13;;;48.60;1.00;;;;;;4983774;28;20459;-80
2023/06/11 15:50:17;;;;;;;4.50;1.87;;;48.80;1.00;;;;;;4992494;28;20432;-79
2023/06/11 15:52:50;;;;;;;2.00;1.90;;;49.30;1.00;;;;;;4979794;28;20515;-80
2023/06/11 15:55:21;;;;;;;2.10;2.00;;;49.80;1.00;;;;;;4980478;28;20923;-80
2023/06/11 15:57:48;;;;;;;2.10;2.00;;;50.60;1.00;;;;;;4990987;28;20417;-76
2023/06/11 16:00:14;;;;;;;2.20;2.10;;;50.80;1.00;;;;;;4990739;28;20790;-76
2023/06/11 16:02:40;;;;;;;1.90;1.80;;;50.90;1.00;;;;;;4989350;28;20432;-76
2023/06/11 16:05:06;;;;;;;2.30;1.90;;;51.50;1.00;;;;;;4988529;28;20452;-75
2023/06/11 16:07:32;;;;;;;2.00;1.90;;;52.00;1.00;;;;;;4991646;28;20235;-76
2023/06/11 16:09:58;;;;;;;2.50;1.57;;;52.40;1.00;;;;;;4993822;28;20998;-76
2023/06/11 16:12:26;;;;;;;1.80;1.70;;;51.90;1.00;;;;;;4992826;28;20476;-79
2023/06/11 16:14:56;;;;;;;2.73;1.77;;;51.90;1.00;;;;;;4987928;28;20724;-80
2023/06/11 16:17:32;;;;;;;2.80;1.73;;;52.00;1.00;;;;;;5004636;28;20848;-80
2023/06/11 16:20:02;;;;;;;6.37;1.60;;;52.20;1.00;;;;;;4987028;28;20431;-80
2023/06/11 16:22:28;;;;;;;2.13;1.90;;;52.40;1.00;;;;;;4987092;28;20449;-80
2023/06/11 16:24:56;;;;;;;1.73;1.63;;;52.40;1.00;;;;;;4989035;28;20444;-81
2023/06/11 16:27:22;;;;;;;4.20;2.07;;;52.70;1.00;;;;;;4988074;28;20547;-77
2023/06/11 16:29:47;;;;;;;2.37;2.00;;;53.10;1.00;;;;;;4989058;28;20490;-77
2023/06/11 16:32:20;;;;;;;2.07;1.90;;;52.50;1.00;;;;;;4985074;28;21224;-80
2023/06/11 16:34:50;;;;;;;1.83;1.70;;;52.50;1.00;;;;;;4969602;28;20273;-82
2023/06/11 16:37:32;;;;;;;3.40;1.53;;;52.60;1.00;;;;;;4996162;28;20499;-82
2023/06/11 16:39:58;;;;;;;4.50;1.60;;;52.40;1.00;;;;;;4981922;28;20429;-82
2023/06/11 16:42:24;;;;;;;1.93;1.83;;;52.80;1.00;;;;;;4988063;28;20518;-78
2023/06/11 16:44:49;;;;;;;1.50;1.40;;;53.00;1.00;;;;;;4990803;28;20235;-81
2023/06/11 16:47:15;;;;;;;2.03;1.50;;;53.20;1.00;;;;;;4994540;28;20268;-80
2023/06/11 16:49:41;;;;;;;2.40;1.60;;;53.60;1.00;;;;;;4988701;28;20197;-83
2023/06/11 16:52:07;;;;;;;1.50;1.40;;;53.60;1.00;;;;;;4969865;28;20885;-81
2023/06/11 16:54:32;;;;;;;1.90;1.67;;;53.40;1.00;;;;;;4993093;28;20209;-78
2023/06/11 16:57:03;;;;;;;1.63;1.53;;;53.30;1.00;;;;;;4988131;28;20181;-78
2023/06/11 16:59:28;;;;;;;1.50;1.50;;;52.80;1.00;;;;;;4983909;28;20204;-81
2023/06/11 17:01:54;;;;;;;1.43;1.30;;;52.90;1.00;;;;;;4983044;28;20551;-82
2023/06/11 17:04:20;;;;;;;1.33;1.33;;;52.90;1.00;;;;;;4988717;28;20181;-82
2023/06/11 17:06:45;;;;;;;1.57;1.57;;;52.90;1.00;;;;;;4991395;28;20576;-83
2023/06/11 17:09:11;;;;;;;1.73;1.30;;;53.00;1.00;;;;;;4986668;28;20214;-84
2023/06/11 17:14:59;;;;;;;1.50;1.43;;;53.00;1.00;;;;;;4994921;28;20624;-85
2023/06/11 17:17:57;;;;;;;1.43;1.33;;;52.80;1.00;;;;;;4969005;28;20468;-85
2023/06/11 17:21:20;;;;;;;1.43;1.43;;;52.10;1.00;;;;;;4994014;28;20510;-84
2023/06/11 17:23:57;;;;;;;3.23;2.07;;;52.20;1.00;;;;;;4994402;28;20452;-82
2023/06/11 17:26:38;;;;;;;1.47;1.47;;;52.00;1.00;;;;;;4988527;28;20514;-83
2023/06/11 17:29:56;;;;;;;1.90;1.80;;;52.00;1.00;;;;;;4987304;28;20575;-80
2023/06/11 17:32:28;;;;;;;1.67;1.57;;;51.20;1.00;;;;;;4991633;28;20423;-81